Alfonso, Virginia
Current Conditions -  °F | °C
As of 3:35 PM on Monday 24 Nov 2014 (Local Time) from KW75 Reporting Station
Broken Clouds Broken Clouds  
Wind Chill: 22°   Ceiling: 10000
Heat Index: 22°   Visibility: 10mi
Dew Point: 15°   Wind: 14mph
Humidity: 63%   Direction: 210°SSW
Pressure: 29.71"   Gusts: 26mph
Location:  37.7649°N, 76.5055°W
Report Text: KW75 242035Z AUTO 21012G23KT 10SM BKN100 22/15 A2971 RMK AO1 T02210147
Loading
Personal Weather Stations






























Interactive Weather Map New forecast layout! Learn more

10-Day Weather Forecast

Advertisements
Track Severe Weather on mobile